Time;durP1;ratioP1;P1;durP2;ratioP2;P2;SDS_P1;SDS_P2;PMS_P1;PMS_P2;Temp;Humidity;BMP_temperature;BMP_pressure;BME280_temperature;BME280_humidity;BME280_pressure;Samples;Min_cycle;Max_cycle;Signal;HPM_P1;HPM_P2
2022/03/17 00:00:32;;;;;;;1.00;1.00;;;;;;;-7.90;54.14;101475.97;4953362;29;20078;-84
2022/03/17 00:03:00;;;;;;;0.98;0.98;;;;;;;-7.94;54.14;101474.41;4953414;29;20058;-85
2022/03/17 00:05:27;;;;;;;0.90;0.90;;;;;;;-7.87;54.41;101480.25;4967976;28;20471;-85
2022/03/17 00:07:54;;;;;;;1.00;1.00;;;;;;;-7.84;54.26;101490.59;4953550;29;20085;-84
2022/03/17 00:10:22;;;;;;;0.90;0.90;;;;;;;-7.86;54.20;101482.78;4952152;29;20055;-82
2022/03/17 00:12:49;;;;;;;1.00;1.00;;;;;;;-7.96;54.47;101473.59;4951017;29;20094;-79
2022/03/17 00:15:17;;;;;;;0.93;0.93;;;;;;;-7.89;54.67;101484.69;4952883;29;20429;-84
2022/03/17 00:17:46;;;;;;;0.93;0.93;;;;;;;-7.93;54.50;101483.09;4953327;29;20047;-80
2022/03/17 00:20:14;;;;;;;0.75;0.75;;;;;;;-7.92;54.46;101490.91;4957804;28;20078;-82
2022/03/17 00:22:41;;;;;;;1.00;1.00;;;;;;;-7.96;54.70;101473.59;4958696;29;20140;-80
2022/03/17 00:25:09;;;;;;;0.90;0.90;;;;;;;-7.94;54.63;101477.03;4959469;28;20392;-81
2022/03/17 00:27:37;;;;;;;0.70;0.70;;;;;;;-8.03;54.62;101466.91;4958036;29;20150;-82
2022/03/17 00:30:05;;;;;;;0.93;0.93;;;;;;;-7.91;54.39;101487.38;4960145;28;20145;-81
2022/03/17 00:32:33;;;;;;;0.70;0.70;;;;;;;-7.90;54.37;101488.22;4962208;29;20536;-81
2022/03/17 00:37:46;;;;;;;0.82;0.82;;;;;;;-8.03;54.73;101480.03;4961417;28;20495;-83
2022/03/17 00:40:13;;;;;;;1.10;1.10;;;;;;;-8.07;54.92;101475.84;4959334;29;20583;-83
2022/03/17 00:42:40;;;;;;;0.90;0.90;;;;;;;-8.13;55.14;101476.94;4976627;29;20059;-83
2022/03/17 00:45:09;;;;;;;1.00;1.00;;;;;;;-8.11;54.85;101479.50;4976806;29;20028;-83
2022/03/17 00:47:39;;;;;;;0.80;0.80;;;;;;;-8.16;55.03;101477.06;4969802;29;20059;-82
2022/03/17 00:50:08;;;;;;;0.85;0.85;;;;;;;-8.14;55.10;101487.50;4978564;28;20049;-83
2022/03/17 00:52:35;;;;;;;0.90;0.90;;;;;;;-8.21;55.38;101484.25;4951137;28;20154;-86
2022/03/17 00:55:05;;;;;;;0.85;0.85;;;;;;;-8.21;55.38;101499.13;4957604;28;20051;-86
2022/03/17 00:57:33;;;;;;;1.00;1.00;;;;;;;-8.23;55.35;101496.56;4942056;29;20055;-88
2022/03/17 01:00:00;;;;;;;0.90;0.90;;;;;;;-8.26;55.67;101495.84;4941870;29;20063;-88
2022/03/17 01:02:29;;;;;;;0.82;0.82;;;;;;;-8.25;55.66;101500.16;4941776;29;20058;-87
2022/03/17 01:05:22;;;;;;;1.00;1.00;;;;;;;-8.30;55.98;101511.72;4940750;29;20146;-87
2022/03/17 01:07:50;;;;;;;0.90;0.90;;;;;;;-8.35;55.97;101515.44;4941166;29;20075;-87
2022/03/17 01:10:18;;;;;;;1.10;1.10;;;;;;;-8.43;55.93;101505.31;4941293;29;20059;-86
2022/03/17 01:12:46;;;;;;;1.00;1.00;;;;;;;-8.45;56.10;101514.97;4946195;29;20048;-85
2022/03/17 01:15:16;;;;;;;1.10;1.10;;;;;;;-8.50;56.23;101514.31;4947831;29;20100;-87
2022/03/17 01:17:49;;;;;;;0.80;0.80;;;;;;;-8.44;56.20;101527.16;4943773;29;20055;-87
2022/03/17 01:20:16;;;;;;;0.90;0.90;;;;;;;-8.36;56.24;101518.94;4941356;29;20087;-87
2022/03/17 01:22:43;;;;;;;0.80;0.80;;;;;;;-8.41;56.06;101513.94;4939636;29;20499;-88
2022/03/17 01:25:14;;;;;;;1.25;1.20;;;;;;;-8.44;56.01;101519.28;4940815;29;20051;-86
2022/03/17 01:27:41;;;;;;;1.00;1.00;;;;;;;-8.44;56.33;101519.28;4940609;29;20064;-87
2022/03/17 01:30:12;;;;;;;0.77;0.77;;;;;;;-8.48;56.41;101517.72;4941461;29;20051;-86
2022/03/17 01:32:39;;;;;;;0.88;0.88;;;;;;;-8.49;56.59;101523.03;4937885;29;20414;-87
2022/03/17 01:35:07;;;;;;;1.10;1.10;;;;;;;-8.60;56.92;101512.97;4938341;29;20107;-88
2022/03/17 01:37:36;;;;;;;1.00;1.00;;;;;;;-8.58;57.14;101522.47;4937428;29;20052;-89
2022/03/17 01:40:04;;;;;;;0.90;0.90;;;;;;;-8.54;57.03;101523.19;4938893;29;20045;-88
2022/03/17 01:42:32;;;;;;;1.00;1.00;;;;;;;-8.50;57.17;101522.16;4944621;29;20047;-88
2022/03/17 01:44:59;;;;;;;1.00;1.00;;;;;;;-8.49;56.94;101525.63;4926167;29;20047;-87
2022/03/17 01:47:29;;;;;;;1.00;1.00;;;;;;;-8.47;56.91;101529.91;4941624;29;20582;-88
2022/03/17 01:50:17;;;;;;;1.00;1.00;;;;;;;-8.40;56.83;101533.97;4942065;29;20063;-88
2022/03/17 01:52:45;;;;;;;0.82;0.82;;;;;;;-8.44;56.71;101528.94;4938776;29;20531;-88
2022/03/17 01:55:14;;;;;;;0.90;0.90;;;;;;;-8.45;56.54;101533.31;4938561;29;20052;-87
2022/03/17 01:57:43;;;;;;;0.98;0.98;;;;;;;-8.45;56.81;101529.84;4937717;29;20487;-87
2022/03/17 02:00:13;;;;;;;0.90;0.90;;;;;;;-8.49;56.70;101531.72;4937323;29;20048;-85
2022/03/17 02:02:41;;;;;;;0.90;0.90;;;;;;;-8.54;56.99;101531.91;4935926;29;20507;-88
2022/03/17 02:05:11;;;;;;;0.73;0.73;;;;;;;-8.64;57.08;101532.31;4936214;29;20062;-88
2022/03/17 02:07:48;;;;;;;1.08;1.08;;;;;;;-8.69;57.48;101534.28;4937400;29;20056;-88
2022/03/17 02:10:16;;;;;;;0.98;0.98;;;;;;;-8.78;57.88;101531.09;4938393;29;20048;-86
2022/03/17 02:15:32;;;;;;;0.95;0.95;;;;;;;-8.78;57.61;101538.94;4937205;29;20108;-87
2022/03/17 02:18:02;;;;;;;0.80;0.80;;;;;;;-8.75;57.76;101545.84;4943722;29;20046;-86
2022/03/17 02:20:30;;;;;;;1.00;1.00;;;;;;;-8.77;57.76;101535.41;4959604;29;20530;-86
2022/03/17 02:25:33;;;;;;;0.93;0.93;;;;;;;-8.70;57.76;101543.06;4937518;29;20510;-86
2022/03/17 02:25:53;;;;;;;1.10;1.10;;;;;;;-8.76;57.70;101544.09;4937971;29;20199;-86
2022/03/17 02:28:21;;;;;;;0.90;0.90;;;;;;;-8.79;57.76;101552.94;4935536;29;20059;-87
2022/03/17 02:30:51;;;;;;;0.95;0.95;;;;;;;-8.84;57.98;101551.41;4920646;29;20056;-86
2022/03/17 02:33:21;;;;;;;1.00;1.00;;;;;;;-8.84;58.35;101549.63;4937840;29;20055;-85
2022/03/17 02:35:51;;;;;;;1.00;1.00;;;;;;;-8.78;57.93;101556.44;4940805;29;20410;-86
2022/03/17 02:38:18;;;;;;;1.00;1.00;;;;;;;-8.87;58.05;101552.38;4942972;29;20055;-87
2022/03/17 02:40:48;;;;;;;1.05;1.05;;;;;;;-8.87;58.05;101555.00;4942376;29;20142;-86
2022/03/17 02:43:41;;;;;;;1.00;1.00;;;;;;;-8.86;58.23;101554.09;4970718;28;20114;-88
2022/03/17 02:46:08;;;;;;;1.27;1.17;;;;;;;-8.87;57.94;101554.16;4976942;28;20137;-84
2022/03/17 02:48:35;;;;;;;1.10;1.10;;;;;;;-8.89;58.03;101562.03;4971578;28;20047;-90
2022/03/17 02:51:02;;;;;;;1.00;1.00;;;;;;;-8.89;58.10;101562.03;4961167;28;20093;-89
2022/03/17 02:53:30;;;;;;;0.98;0.98;;;;;;;-8.89;58.06;101569.06;4972812;28;20042;-88
2022/03/17 02:55:57;;;;;;;0.90;0.90;;;;;;;-8.93;58.08;101565.72;4990089;28;20110;-86
2022/03/17 02:58:24;;;;;;;0.82;0.82;;;;;;;-8.95;58.31;101573.59;4974485;28;20047;-85
2022/03/17 03:00:51;;;;;;;1.10;1.10;;;;;;;-8.97;58.19;101569.34;4974850;28;20133;-87
2022/03/17 03:03:19;;;;;;;1.00;1.00;;;;;;;-8.97;58.42;101574.56;4973409;28;20138;-84
2022/03/17 03:05:48;;;;;;;1.10;1.10;;;;;;;-8.97;58.16;101582.44;4974369;28;20416;-82
2022/03/17 03:08:16;;;;;;;0.90;0.90;;;;;;;-8.93;58.16;101589.25;4974184;28;20050;-85
2022/03/17 03:10:44;;;;;;;0.90;0.90;;;;;;;-8.89;58.16;101593.47;4956840;28;20054;-82
2022/03/17 03:13:11;;;;;;;1.02;1.02;;;;;;;-8.89;57.95;101593.47;4972608;28;20524;-84
2022/03/17 03:15:38;;;;;;;1.00;1.00;;;;;;;-8.89;57.69;101590.00;4974051;28;20055;-86
2022/03/17 03:18:05;;;;;;;0.90;0.90;;;;;;;-8.91;57.60;101586.56;4989284;28;20094;-82
2022/03/17 03:20:33;;;;;;;1.00;1.00;;;;;;;-8.94;57.65;101598.00;4974340;28;20049;-84
2022/03/17 03:23:08;;;;;;;1.00;1.00;;;;;;;-8.87;57.54;101602.13;4974173;28;20046;-85
2022/03/17 03:25:36;;;;;;;1.40;1.30;;;;;;;-8.92;57.46;101609.28;4973658;28;20066;-86
2022/03/17 03:28:07;;;;;;;1.30;1.20;;;;;;;-8.93;57.47;101604.13;4974726;28;20054;-82
2022/03/17 03:30:37;;;;;;;1.00;1.00;;;;;;;-9.00;57.56;101600.88;4975151;28;20059;-83
2022/03/17 03:33:08;;;;;;;1.10;1.10;;;;;;;-8.95;57.52;101614.63;4973637;28;20046;-85
2022/03/17 03:38:22;;;;;;;1.00;1.00;;;;;;;-9.05;57.37;101608.03;4973283;28;20046;-87
2022/03/17 03:40:49;;;;;;;1.27;1.20;;;;;;;-9.07;57.40;101605.44;4940670;28;20094;-86
2022/03/17 03:43:17;;;;;;;1.20;1.20;;;;;;;-9.09;57.27;101620.34;4972784;28;20051;-85
2022/03/17 03:45:44;;;;;;;0.93;0.93;;;;;;;-9.10;57.42;101616.03;4973175;28;20112;-88
2022/03/17 03:48:13;;;;;;;1.40;1.30;;;;;;;-9.18;57.53;101613.69;4973055;28;20113;-84
2022/03/17 03:50:40;;;;;;;1.30;1.20;;;;;;;-9.21;57.66;101620.81;4964334;28;20489;-82
2022/03/17 03:53:07;;;;;;;1.05;1.05;;;;;;;-9.18;57.66;101632.00;4974114;28;20082;-85
2022/03/17 03:55:38;;;;;;;0.93;0.93;;;;;;;-9.18;57.55;101628.53;4973188;28;20055;-85
2022/03/17 03:58:05;;;;;;;1.00;1.00;;;;;;;-9.14;57.57;101634.50;4973416;28;20046;-84
2022/03/17 04:00:33;;;;;;;1.00;1.00;;;;;;;-9.12;57.52;101635.31;4973166;28;20051;-85
2022/03/17 04:03:03;;;;;;;1.30;1.20;;;;;;;-9.06;57.60;101641.19;4975850;28;20524;-84
2022/03/17 04:05:34;;;;;;;1.10;1.10;;;;;;;-8.98;57.39;101644.38;4980676;28;20047;-85
2022/03/17 04:08:02;;;;;;;1.10;1.10;;;;;;;-8.89;57.38;101642.34;4973046;28;20091;-85
2022/03/17 04:10:30;;;;;;;1.23;1.17;;;;;;;-8.84;57.05;101638.63;4957316;28;20115;-89
2022/03/17 04:12:57;;;;;;;1.10;1.10;;;;;;;-8.69;56.65;101659.94;4991479;28;20049;-84
2022/03/17 04:15:25;;;;;;;0.98;0.98;;;;;;;-8.60;56.29;101649.13;4973657;28;20101;-88
2022/03/17 04:17:53;;;;;;;1.20;1.10;;;;;;;-8.56;56.09;101648.97;4974134;28;20111;-85
2022/03/17 04:20:20;;;;;;;1.30;1.20;;;;;;;-8.57;56.03;101652.47;4973703;28;20055;-85
2022/03/17 04:23:13;;;;;;;1.10;1.10;;;;;;;-8.50;55.81;101660.97;4992276;28;20026;-85
2022/03/17 04:25:40;;;;;;;1.00;1.00;;;;;;;-8.52;55.80;101662.78;4963160;28;20113;-85
2022/03/17 04:28:11;;;;;;;1.00;1.00;;;;;;;-8.46;55.66;101665.16;4983561;28;20073;-87
2022/03/17 04:30:39;;;;;;;1.08;1.08;;;;;;;-8.42;55.34;101669.41;4973581;28;20110;-84
2022/03/17 04:33:06;;;;;;;1.35;1.25;;;;;;;-8.36;55.20;101663.03;4613598;28;10000134;-83
2022/03/17 04:35:35;;;;;;;1.00;1.00;;;;;;;-8.32;55.20;101675.97;4937626;29;20051;-84
2022/03/17 04:38:02;;;;;;;1.10;1.10;;;;;;;-8.24;54.96;101669.56;4952509;29;20130;-85
2022/03/17 04:40:29;;;;;;;1.05;1.05;;;;;;;-8.22;54.98;101670.38;4951246;29;20048;-86
2022/03/17 04:42:56;;;;;;;1.10;1.10;;;;;;;-8.18;54.71;101672.78;4951100;28;20106;-84
2022/03/17 04:45:23;;;;;;;1.00;1.00;;;;;;;-8.07;54.71;101675.88;4929085;29;20051;-84
2022/03/17 04:47:50;;;;;;;0.93;0.93;;;;;;;-8.01;54.54;101679.16;4950469;29;20047;-84
2022/03/17 04:50:18;;;;;;;1.30;1.20;;;;;;;-7.95;54.35;101685.03;4934541;29;20411;-84
2022/03/17 04:55:31;;;;;;;0.98;0.98;;;;;;;-7.91;54.23;101683.97;4932092;29;20103;-86
2022/03/17 04:57:58;;;;;;;1.08;1.08;;;;;;;-7.86;54.13;101675.94;4953560;28;20083;-85
2022/03/17 05:00:28;;;;;;;1.00;1.00;;;;;;;-7.83;54.09;101688.91;4920184;29;20470;-85
2022/03/17 05:02:56;;;;;;;1.10;1.10;;;;;;;-7.72;53.91;101688.47;4949448;29;20059;-86
2022/03/17 05:05:27;;;;;;;0.82;0.82;;;;;;;-7.65;53.51;101687.31;4950012;28;20055;-85
2022/03/17 05:07:57;;;;;;;1.02;1.02;;;;;;;-7.56;53.38;101693.97;4955055;29;20514;-86
2022/03/17 05:10:25;;;;;;;0.85;0.85;;;;;;;-7.53;53.15;101694.69;4955433;29;20592;-85
2022/03/17 05:12:52;;;;;;;0.90;0.90;;;;;;;-7.54;53.09;101685.13;4957281;29;20059;-86
2022/03/17 05:15:20;;;;;;;0.95;0.95;;;;;;;-7.42;53.11;101700.38;4958108;29;20051;-85
2022/03/17 05:17:47;;;;;;;0.88;0.88;;;;;;;-7.37;52.97;101689.66;4958760;29;20051;-86
2022/03/17 05:20:19;;;;;;;1.00;1.00;;;;;;;-7.21;52.28;101703.03;4962669;29;20123;-85
2022/03/17 05:22:47;;;;;;;0.90;0.90;;;;;;;-7.13;52.10;101706.16;4946292;29;20444;-87
2022/03/17 05:25:14;;;;;;;0.80;0.80;;;;;;;-7.02;51.75;101717.06;4958219;29;20049;-86
2022/03/17 05:27:42;;;;;;;1.20;1.10;;;;;;;-6.86;51.54;101708.50;4957241;29;20065;-86
2022/03/17 05:30:13;;;;;;;0.90;0.90;;;;;;;-6.78;50.82;101704.66;4963496;28;20079;-85
2022/03/17 05:33:01;;;;;;;1.27;1.17;;;;;;;-6.81;50.68;101669.78;4925502;29;20114;-85
2022/03/17 05:35:29;;;;;;;1.05;1.05;;;;;;;-6.68;50.24;101678.84;4946727;29;20051;-88
2022/03/17 05:38:07;;;;;;;0.90;0.90;;;;;;;-6.43;49.51;101691.72;4937381;29;20043;-86
2022/03/17 05:40:37;;;;;;;1.00;1.00;;;;;;;-6.32;49.16;101676.31;4964144;29;20815;-86
2022/03/17 05:43:06;;;;;;;1.05;1.05;;;;;;;-6.08;48.82;101691.00;4938703;29;20102;-84
2022/03/17 05:45:34;;;;;;;0.95;0.95;;;;;;;-5.90;48.09;101696.22;4969051;28;20538;-85
2022/03/17 05:48:06;;;;;;;0.73;0.73;;;;;;;-5.86;47.34;101689.03;4951063;29;20071;-85
2022/03/17 05:50:45;;;;;;;0.90;0.90;;;;;;;-5.66;46.71;101695.97;4950814;28;20077;-80
2022/03/17 05:53:12;;;;;;;0.80;0.80;;;;;;;-5.56;45.91;101694.59;4963461;28;20063;-80
2022/03/17 05:55:39;;;;;;;0.90;0.90;;;;;;;-5.45;45.92;101688.78;4940865;29;20048;-82
2022/03/17 05:58:09;;;;;;;0.80;0.80;;;;;;;-5.31;45.36;101696.88;4952805;29;20043;-83
2022/03/17 06:00:39;;;;;;;0.80;0.80;;;;;;;-5.15;44.64;101701.38;4952077;29;20055;-82
2022/03/17 06:03:07;;;;;;;0.70;0.70;;;;;;;-5.04;44.51;101707.81;4951777;29;20051;-82
2022/03/17 06:05:35;;;;;;;0.63;0.63;;;;;;;-4.94;44.11;101705.53;4949750;29;20051;-82
2022/03/17 06:08:09;;;;;;;0.77;0.77;;;;;;;-4.76;43.39;101713.41;4951546;29;20079;-82
2022/03/17 06:10:37;;;;;;;0.90;0.90;;;;;;;-4.66;42.07;101712.00;4951465;28;20055;-82
2022/03/17 06:13:06;;;;;;;0.80;0.80;;;;;;;-4.65;41.47;101719.00;4951854;29;20059;-83
2022/03/17 06:15:35;;;;;;;0.57;0.57;;;;;;;-4.62;41.29;101718.81;4950551;29;20114;-82
2022/03/17 06:18:05;;;;;;;0.70;0.70;;;;;;;-4.56;40.63;101715.84;4950623;28;20411;-81
2022/03/17 06:20:34;;;;;;;0.70;0.70;;;;;;;-4.46;40.54;101722.34;4951679;29;20557;-82
2022/03/17 06:23:03;;;;;;;1.00;1.00;;;;;;;-4.34;40.75;101722.63;4933130;29;20055;-82
2022/03/17 06:25:34;;;;;;;0.70;0.70;;;;;;;-4.21;40.29;101728.94;4950713;29;20142;-82
2022/03/17 06:28:08;;;;;;;0.63;0.63;;;;;;;-4.09;40.07;101728.28;4956935;28;20074;-81
2022/03/17 06:30:37;;;;;;;0.68;0.68;;;;;;;-3.98;39.59;101730.34;4949884;29;20510;-82
2022/03/17 06:33:05;;;;;;;0.50;0.50;;;;;;;-3.92;39.75;101730.88;4953167;29;20051;-84
2022/03/17 06:35:33;;;;;;;0.60;0.60;;;;;;;-3.86;39.44;101737.59;4952997;29;20047;-83
2022/03/17 06:38:01;;;;;;;0.73;0.73;;;;;;;-3.79;39.13;101730.19;4950277;29;20122;-81
2022/03/17 06:40:32;;;;;;;0.52;0.52;;;;;;;-3.78;38.71;101731.88;4942527;29;20146;-83
2022/03/17 06:42:59;;;;;;;1.00;1.00;;;;;;;-3.75;38.57;101723.78;4951746;29;20171;-83
2022/03/17 06:45:27;;;;;;;0.70;0.70;;;;;;;-3.64;37.51;101731.97;4951625;28;20533;-82
2022/03/17 06:47:54;;;;;;;0.90;0.90;;;;;;;-3.58;37.54;101738.69;4949766;29;20072;-82
2022/03/17 06:50:23;;;;;;;0.50;0.50;;;;;;;-3.56;37.28;101748.22;4949959;29;20094;-81
2022/03/17 06:52:51;;;;;;;0.60;0.60;;;;;;;-3.53;37.08;101736.63;4951206;29;20047;-85
2022/03/17 06:55:19;;;;;;;0.80;0.80;;;;;;;-3.65;37.12;101740.81;4949877;29;20082;-85
2022/03/17 06:57:47;;;;;;;0.60;0.60;;;;;;;-3.78;37.50;101742.44;4934138;29;20047;-83
2022/03/17 07:00:16;;;;;;;0.68;0.68;;;;;;;-3.65;37.32;101738.16;4925743;29;20047;-83
2022/03/17 07:02:44;;;;;;;0.70;0.70;;;;;;;-3.46;36.69;101745.91;4926692;29;20163;-85
2022/03/17 07:05:11;;;;;;;0.70;0.70;;;;;;;-3.50;36.82;101736.47;4943833;29;20117;-83
2022/03/17 07:07:43;;;;;;;0.75;0.75;;;;;;;-3.48;36.22;101739.88;4949666;28;20119;-84
2022/03/17 07:10:11;;;;;;;0.80;0.80;;;;;;;-3.53;36.42;101731.34;4947523;29;20624;-82
2022/03/17 07:12:41;;;;;;;0.70;0.70;;;;;;;-3.50;36.36;101737.31;4947695;29;20577;-81
2022/03/17 07:15:10;;;;;;;0.73;0.73;;;;;;;-3.31;35.66;101741.56;4942288;29;20125;-81
2022/03/17 07:17:41;;;;;;;0.80;0.80;;;;;;;-3.13;35.46;101737.84;4954923;28;20055;-83
2022/03/17 07:20:14;;;;;;;0.70;0.70;;;;;;;-2.93;35.43;101746.41;4949177;29;20071;-83
2022/03/17 07:22:43;;;;;;;0.70;0.70;;;;;;;-2.73;34.71;101740.78;4946128;29;20789;-81
2022/03/17 07:25:11;;;;;;;0.70;0.70;;;;;;;-2.57;34.38;101747.78;4946471;29;20573;-81
2022/03/17 07:27:41;;;;;;;0.60;0.60;;;;;;;-2.42;34.08;101744.22;4949031;29;20066;-82
2022/03/17 07:30:10;;;;;;;0.75;0.75;;;;;;;-2.44;33.45;101738.16;4947380;28;20047;-83
2022/03/17 07:32:38;;;;;;;0.70;0.70;;;;;;;-2.28;33.46;101759.22;4936356;29;20055;-81
2022/03/17 07:35:07;;;;;;;0.70;0.70;;;;;;;-2.03;33.37;101750.63;4947705;29;20055;-84
2022/03/17 07:37:34;;;;;;;0.73;0.73;;;;;;;-1.82;33.36;101751.94;4942668;29;20055;-81
2022/03/17 07:40:01;;;;;;;0.70;0.70;;;;;;;-1.71;32.48;101750.41;4946255;29;20086;-80
2022/03/17 07:42:29;;;;;;;0.70;0.70;;;;;;;-1.55;32.18;101753.75;4949166;28;20118;-85
2022/03/17 07:45:16;;;;;;;0.80;0.80;;;;;;;-1.53;31.80;101733.31;4961518;28;20055;-83
2022/03/17 07:48:07;;;;;;;0.77;0.77;;;;;;;-1.37;31.71;101752.56;4956476;28;20055;-83
2022/03/17 07:50:38;;;;;;;0.80;0.80;;;;;;;-1.21;30.94;101755.06;4937377;29;20047;-81
2022/03/17 07:53:05;;;;;;;0.98;0.98;;;;;;;-1.04;30.73;101755.75;4950027;29;20150;-83
2022/03/17 07:55:33;;;;;;;0.90;0.90;;;;;;;-1.03;30.61;101752.16;4962762;28;20055;-82
2022/03/17 07:58:01;;;;;;;0.90;0.90;;;;;;;-0.88;30.24;101753.78;4942976;29;20103;-83
2022/03/17 08:00:32;;;;;;;0.90;0.90;;;;;;;-0.80;29.99;101743.50;4923788;29;20048;-82
2022/03/17 08:03:01;;;;;;;0.70;0.70;;;;;;;-0.49;29.94;101754.66;4947708;28;20433;-83
2022/03/17 08:05:29;;;;;;;0.82;0.82;;;;;;;-0.41;29.28;101756.78;4948263;29;20490;-82
2022/03/17 08:07:56;;;;;;;0.80;0.80;;;;;;;-0.60;28.94;101747.44;4948479;29;20075;-83
2022/03/17 08:10:23;;;;;;;1.00;1.00;;;;;;;-0.54;29.14;101757.63;4949129;29;20151;-83
2022/03/17 08:12:54;;;;;;;0.77;0.77;;;;;;;-0.29;28.92;101769.19;4951870;29;20055;-81
2022/03/17 08:15:24;;;;;;;0.70;0.70;;;;;;;-0.13;28.09;101768.97;4950123;29;20046;-82
2022/03/17 08:17:52;;;;;;;0.90;0.90;;;;;;;-0.08;28.12;101773.00;4954296;29;20055;-82
2022/03/17 08:20:20;;;;;;;0.98;0.98;;;;;;;0.05;27.92;101772.13;4960693;29;20051;-83
2022/03/17 08:22:49;;;;;;;1.13;1.13;;;;;;;0.39;27.65;101771.44;4954261;28;20151;-84
2022/03/17 08:25:18;;;;;;;0.80;0.80;;;;;;;0.55;27.02;101763.19;4937614;28;20047;-85
2022/03/17 08:27:50;;;;;;;0.90;0.90;;;;;;;0.81;26.94;101777.25;4949536;28;20080;-83
2022/03/17 08:30:17;;;;;;;0.90;0.90;;;;;;;1.04;27.00;101775.53;4951248;29;20047;-82
2022/03/17 08:32:48;;;;;;;1.02;1.02;;;;;;;1.07;26.62;101769.13;4953758;29;20114;-82
2022/03/17 08:35:17;;;;;;;1.10;1.10;;;;;;;1.17;26.18;101777.25;4954734;29;20078;-83
2022/03/17 08:37:45;;;;;;;0.88;0.88;;;;;;;1.22;26.48;101770.63;4960881;29;20062;-84
2022/03/17 08:40:16;;;;;;;0.90;0.90;;;;;;;1.41;26.29;101775.38;4961278;28;20215;-84
2022/03/17 08:42:43;;;;;;;1.00;1.00;;;;;;;0.90;26.32;101769.53;4954022;29;20115;-83
2022/03/17 08:50:47;;;;;;;1.13;1.13;;;;;;;1.64;25.53;101775.44;4936485;29;20043;-84
2022/03/17 08:53:15;;;;;;;1.02;1.02;;;;;;;1.83;25.50;101774.84;4942552;29;20047;-83
2022/03/17 08:55:42;;;;;;;1.30;1.20;;;;;;;1.83;25.53;101774.84;4910936;29;20531;-83
2022/03/17 08:58:13;;;;;;;0.90;0.90;;;;;;;1.91;24.75;101775.09;4945541;29;20047;-82
2022/03/17 09:00:40;;;;;;;1.08;1.08;;;;;;;2.23;24.90;101772.56;4922507;29;20587;-84
2022/03/17 09:03:08;;;;;;;1.05;1.05;;;;;;;2.07;24.96;101778.22;4942751;29;20142;-86
2022/03/17 09:05:36;;;;;;;1.02;1.02;;;;;;;2.73;24.78;101764.06;4946364;29;20422;-83
2022/03/17 09:08:06;;;;;;;0.95;0.95;;;;;;;2.89;24.34;101775.19;4945630;29;20047;-83
2022/03/17 09:10:38;;;;;;;1.00;1.00;;;;;;;3.17;24.57;101776.41;4954470;29;20103;-83
2022/03/17 09:13:09;;;;;;;1.20;1.20;;;;;;;3.21;24.03;101788.50;4951950;29;20145;-83
2022/03/17 09:15:39;;;;;;;1.30;1.20;;;;;;;3.50;23.64;101782.53;4948807;29;20059;-83
2022/03/17 09:18:08;;;;;;;1.08;1.08;;;;;;;3.71;23.52;101787.03;4955908;29;20121;-82
2022/03/17 09:20:37;;;;;;;1.00;1.00;;;;;;;3.79;23.12;101784.53;4954618;29;20069;-83
2022/03/17 09:23:05;;;;;;;0.95;0.95;;;;;;;4.22;23.12;101786.13;4952883;29;20047;-83
2022/03/17 09:25:34;;;;;;;1.05;1.05;;;;;;;4.27;22.69;101781.22;4955237;28;20078;-82
2022/03/17 09:28:02;;;;;;;1.00;1.00;;;;;;;4.68;22.54;101774.84;4950160;29;20063;-87
2022/03/17 09:30:30;;;;;;;1.05;1.05;;;;;;;4.05;22.79;101792.94;4952097;29;20055;-83
2022/03/17 09:33:03;;;;;;;1.00;1.00;;;;;;;3.50;23.22;101779.03;4953249;29;20059;-82
2022/03/17 09:35:30;;;;;;;1.10;1.10;;;;;;;4.32;22.78;101785.16;4954340;28;20498;-81
2022/03/17 09:37:57;;;;;;;1.10;1.10;;;;;;;5.09;21.97;101783.63;4953240;29;20047;-82
2022/03/17 09:40:24;;;;;;;1.38;1.27;;;;;;;5.12;21.80;101787.84;4954123;29;20048;-81
2022/03/17 09:43:18;;;;;;;1.00;1.00;;;;;;;5.74;21.65;101783.81;4955000;29;20051;-81
2022/03/17 09:45:43;;;;;;;1.08;1.08;;;;;;;5.86;21.42;101782.66;4937987;29;20062;-81
2022/03/17 09:48:11;;;;;;;1.10;1.10;;;;;;;6.08;21.20;101776.13;4968360;28;20087;-81
2022/03/17 09:50:39;;;;;;;0.93;0.93;;;;;;;5.35;21.42;101773.19;4954483;29;20052;-81
2022/03/17 09:53:08;;;;;;;0.90;0.90;;;;;;;4.57;22.41;101772.28;4943398;28;20048;-81
2022/03/17 09:55:36;;;;;;;1.10;1.10;;;;;;;4.80;22.48;101778.25;4954193;29;20055;-81
2022/03/17 09:58:06;;;;;;;0.88;0.88;;;;;;;5.19;22.16;101779.13;4953753;28;20488;-82
2022/03/17 10:00:48;;;;;;;0.98;0.98;;;;;;;5.10;21.82;101774.59;4952362;29;20540;-82
2022/03/17 10:03:25;;;;;;;1.00;1.00;;;;;;;5.57;21.64;101776.50;4952291;29;20319;-80
2022/03/17 10:06:02;;;;;;;1.10;1.10;;;;;;;5.76;21.86;101775.63;4952641;29;20058;-82
2022/03/17 10:08:31;;;;;;;1.02;1.02;;;;;;;5.90;21.00;101768.94;4951172;29;20059;-81
2022/03/17 10:10:59;;;;;;;1.10;1.10;;;;;;;6.12;20.83;101765.09;4954705;29;20421;-82
2022/03/17 10:13:26;;;;;;;1.00;1.00;;;;;;;6.59;20.66;101767.69;4954037;28;20055;-83
2022/03/17 10:16:11;;;;;;;1.10;1.10;;;;;;;6.52;20.27;101759.38;4952404;28;20795;-82
2022/03/17 10:18:39;;;;;;;1.10;1.10;;;;;;;6.64;20.32;101760.03;4954597;29;20039;-82
2022/03/17 10:21:06;;;;;;;1.13;1.13;;;;;;;7.05;20.16;101753.19;4954924;29;20048;-82
2022/03/17 10:23:35;;;;;;;1.13;1.13;;;;;;;6.94;19.85;101751.59;4954558;29;20051;-84
2022/03/17 10:26:05;;;;;;;1.10;1.10;;;;;;;7.25;19.69;101759.25;4953984;29;20090;-83
2022/03/17 10:28:32;;;;;;;0.98;0.98;;;;;;;7.11;19.91;101760.63;4955262;29;20087;-83
2022/03/17 10:31:06;;;;;;;1.00;1.00;;;;;;;6.97;19.73;101761.19;4957779;29;20051;-82
2022/03/17 10:33:34;;;;;;;1.10;1.10;;;;;;;7.16;19.53;101760.16;4954330;29;20090;-82
2022/03/17 10:36:14;;;;;;;1.10;1.10;;;;;;;7.79;19.19;101756.41;4954521;29;20462;-83
2022/03/17 10:38:43;;;;;;;1.02;1.02;;;;;;;7.82;18.78;101762.34;4949670;29;20055;-83
2022/03/17 10:41:13;;;;;;;1.00;1.00;;;;;;;6.93;19.49;101754.41;4953633;29;20047;-81
2022/03/17 10:43:42;;;;;;;1.15;1.15;;;;;;;7.42;19.10;101760.22;4952961;29;20464;-84
2022/03/17 10:46:19;;;;;;;1.10;1.10;;;;;;;7.85;19.40;101760.31;4934539;29;20403;-81
2022/03/17 10:48:56;;;;;;;1.10;1.10;;;;;;;8.41;18.90;101761.63;4951656;29;20078;-81
2022/03/17 10:51:32;;;;;;;1.10;1.10;;;;;;;8.41;18.73;101756.25;4951233;29;20407;-81
2022/03/17 10:54:20;;;;;;;1.10;1.10;;;;;;;9.00;17.87;101753.50;4952976;29;20414;-81
2022/03/17 10:57:05;;;;;;;1.10;1.10;;;;;;;9.79;17.91;101746.50;4952617;29;20490;-80
2022/03/17 10:59:40;;;;;;;1.00;1.00;;;;;;;9.21;17.97;101751.13;4953497;29;20078;-81
2022/03/17 11:02:10;;;;;;;1.00;1.00;;;;;;;8.96;18.57;101744.88;4953854;29;20145;-82
2022/03/17 11:04:41;;;;;;;1.00;1.00;;;;;;;9.67;18.16;101739.78;4911597;29;20054;-82
2022/03/17 11:07:13;;;;;;;1.10;1.10;;;;;;;9.82;18.23;101745.31;4936275;29;20048;-81
2022/03/17 11:09:42;;;;;;;1.00;1.00;;;;;;;9.71;18.04;101741.97;4945170;29;20094;-82
2022/03/17 11:12:17;;;;;;;1.10;1.10;;;;;;;9.58;17.87;101744.38;4954237;29;20059;-81
2022/03/17 11:14:50;;;;;;;1.05;1.05;;;;;;;9.57;17.97;101741.84;4952937;29;20055;-81
2022/03/17 11:17:31;;;;;;;1.10;1.10;;;;;;;9.81;17.93;101744.50;4953380;29;20055;-81
2022/03/17 11:20:06;;;;;;;1.00;1.00;;;;;;;10.62;17.49;101734.38;4951645;29;20054;-81
2022/03/17 11:22:34;;;;;;;;;;;;;;;10.38;17.49;101741.63;4952963;29;20063;-80
2022/03/17 11:25:28;;;;;;;0.98;0.98;;;;;;;10.13;17.32;101727.34;4947683;29;19958;-81
2022/03/17 11:28:01;;;;;;;1.00;1.00;;;;;;;10.81;16.81;101725.81;4947564;28;20422;-81
2022/03/17 11:30:46;;;;;;;1.00;1.00;;;;;;;10.57;17.48;101728.69;4932567;29;20047;-80
2022/03/17 11:33:23;;;;;;;1.00;1.00;;;;;;;10.90;17.10;101733.88;4916540;29;20051;-81
2022/03/17 11:35:55;;;;;;;1.00;1.00;;;;;;;10.94;16.92;101727.94;4932321;29;20051;-82
2022/03/17 11:38:28;;;;;;;1.00;1.00;;;;;;;10.59;17.24;101723.94;4934308;29;20083;-83
2022/03/17 11:41:08;;;;;;;1.00;1.00;;;;;;;10.90;17.15;101729.28;4932429;29;20636;-83
2022/03/17 11:43:39;;;;;;;1.00;1.00;;;;;;;11.75;16.60;101728.19;4933639;29;20056;-81
2022/03/17 11:46:10;;;;;;;1.00;1.00;;;;;;;11.88;16.25;101720.28;4929782;29;20535;-80
2022/03/17 11:48:38;;;;;;;1.00;1.00;;;;;;;11.94;16.23;101726.81;4934692;29;20050;-82
2022/03/17 11:51:07;;;;;;;0.90;0.90;;;;;;;11.58;16.34;101719.41;4931992;29;20059;-81
2022/03/17 11:53:39;;;;;;;1.00;1.00;;;;;;;11.78;15.83;101721.56;4931358;29;20067;-79
2022/03/17 11:56:32;;;;;;;1.00;1.00;;;;;;;11.92;16.06;101718.91;4915895;29;20094;-81